Архив погоды в Хвалынске

Метеограмма Хвалынск
Среда, 19 Июня
Время местн. Темп Ветер Видим Явления Облачность нижн/средн/верх Атм. давл. Влжн Точка росы ВНГО R Сост. почвы Tg s
Напр Скр Прв ур.ст ур.м изм
15:00 +28.9° С-З 3 - 20 км осадки вдали станции переменная облачность 750 756 -0.5 31% +9.9° 1 км - - - -
12:00 +25.9° Ю,Ю-В 3 - 20 км - переменная облачность 751 756 -0.3 55% +16.2° 1 км - - - -
09:00 +21.9° В,С-В 1 - 20 км облака рассеиваются {ливневые осадки} облачно с прояснениями 751 757 0 72% +16.6° 1.5 км - - - -
06:00 +18° С-З 1 - 20 км ливневый дождь облачно 751 757 +0.4 81% +14.7° 1 км - Влажная (без луж) - -
03:00 +20.5° З 2 - 20 км - облачно 750 756 0 60% +12.4° - - - - -
00:00 +20.2° З 2 - 50 км - облачно 750 756 -0.5 60% +12.2° - - - - -
Вторник, 18 Июня
Время местн. Темп Ветер Видим Явления Облачность нижн/средн/верх Атм. давл. Влжн Точка росы ВНГО R Сост. почвы Tg s
Напр Скр Прв ур.ст ур.м изм
21:00 +19.7° С 1 - 20 км облака развиваются {ливневые осадки} облачно 751 757 +0.2 68% +13.7° - - - - -
18:00 +20.1° З 4 - 20 км ливневый дождь облачно с прояснениями 751 757 -0.1 78% +16.1° 1 км - - - -
15:00 +26.3° В,Ю-В 2 - 20 км - переменная облачность 751 757 -0.7 37% +10.6° 1.5 км - - - -
12:00 +24.7° В,Ю-В 2 - 20 км - облачно с прояснениями 752 757 -0.5 43% +11.2° 1.5 км - - - -
09:00 +24.9° С,С-З 3 - 20 км - переменная облачность 752 758 +0.1 39% +10° - - - - -
06:00 +21.1° З,С-З 2 - 20 км - облачно 752 758 -0.1 47% +9.5° - - Сухая (без трещин) - -
03:00 +21° З,С-З 3 - 20 км - облачно 752 757 -0.2 42% +7.6° - - - - -
00:00 +20.9° З,С-З 4 - 50 км - облачно 752 757 +0.1 42% +7.4° - - - - -
Понедельник, 17 Июня
Время местн. Темп Ветер Видим Явления Облачность нижн/средн/верх Атм. давл. Влжн Точка росы ВНГО R Сост. почвы Tg s
Напр Скр Прв ур.ст ур.м изм
21:00 +22.1° З 3 - 20 км - облачно с прояснениями 752 757 +0.2 39% +7.5° - - - - -
18:00 +26.1° С-З 2 - 20 км - переменная облачность 751 757 -0.7 30% +7.1° более 2.5 км 0 - - -
15:00 +26° С-В 2 - 20 км - переменная облачность 752 758 -0.7 34% +9.1° 1.5 км - - - -
12:00 +23.7° В 3 - 20 км - облачно с прояснениями 753 758 -0.3 40% +9.4° 1.5 км - - - -
09:00 +21.4° В 2 - 20 км - незначительная облачность 753 759 +0.3 50% +10.6° 1.5 км - - - -
06:00 +18.7° С,С-З 2 - 20 км - ясно 753 759 +0.7 54% +9.2° более 2.5 км - Сухая (без трещин) - -
03:00 +15.2° С-З 2 - 20 км - ясно 752 758 +0.8 59% +7.2° более 2.5 км - - - -
00:00 +16.6° З,С-З 3 - 50 км - ясно 751 757 +0.3 54% +7.3° более 2.5 км - - - -
Воскресенье, 16 Июня
Время местн. Темп Ветер Видим Явления Облачность нижн/средн/верх Атм. давл. Влжн Точка росы ВНГО R Сост. почвы Tg s
Напр Скр Прв ур.ст ур.м изм
21:00 +18.7° С,С-З 3 - 20 км - облачно с прояснениями 751 757 +0.7 51% +8.3° 1.5 км - - - -
18:00 +20.2° С 1 - 20 км - переменная облачность 750 756 -0.2 61% +12.4° 1.5 км - - - -
15:00 +20.6° С-В 1 - 20 км - облачно с прояснениями 750 756 -0.4 56% +11.6° 1.5 км - - - -
12:00 +21° Ю-В 3 - 20 км - облачно с прояснениями 751 757 -0.6 50% +10.3° 1.5 км - - - -